createdAt,value
2022-08-22T00:00:22.147Z,100065.72
2022-08-22T00:03:07.261Z,100063.97
2022-08-22T00:03:08.204Z,100076.09
2022-08-22T00:05:47.969Z,100074.94
2022-08-22T00:08:23.360Z,100064.75
2022-08-22T00:11:08.702Z,100070.50
2022-08-22T00:14:02.230Z,100064.44
2022-08-22T00:16:49.713Z,100073.63
2022-08-22T00:19:25.944Z,100068.41
2022-08-22T00:22:13.477Z,100065.94
2022-08-22T00:24:49.071Z,100059.81
2022-08-22T00:27:22.315Z,100058.75
2022-08-22T00:30:03.968Z,100056.16
2022-08-22T00:32:41.004Z,100052.19
2022-08-22T00:35:22.693Z,100061.72
2022-08-22T00:38:08.349Z,100052.75
2022-08-22T00:40:59.453Z,100058.00
2022-08-22T00:43:48.903Z,100059.63
2022-08-22T00:46:37.123Z,100064.66
2022-08-22T00:49:35.997Z,100059.66
2022-08-22T00:52:37.410Z,100050.63
2022-08-22T00:55:20.386Z,100052.38
2022-08-22T00:58:09.592Z,100060.19
2022-08-22T01:00:44.725Z,100051.06
2022-08-22T01:03:49.334Z,100053.38
2022-08-22T01:06:21.564Z,100050.78
2022-08-22T01:09:15.181Z,100049.41
2022-08-22T01:12:05.367Z,100049.09
2022-08-22T01:15:10.101Z,100046.72
2022-08-22T01:18:01.444Z,100055.03
2022-08-22T01:20:42.024Z,100043.94
2022-08-22T01:23:32.997Z,100043.72
2022-08-22T01:26:22.558Z,100043.09
2022-08-22T01:29:33.268Z,100042.34
2022-08-22T01:32:08.520Z,100041.59
2022-08-22T01:35:02.655Z,100036.72
2022-08-22T01:37:50.877Z,100038.56
2022-08-22T01:40:19.947Z,100038.88
2022-08-22T01:43:06.114Z,100036.81
2022-08-22T01:45:50.256Z,100030.91
2022-08-22T01:48:30.720Z,100039.75
2022-08-22T01:51:19.927Z,100037.53
2022-08-22T01:54:05.588Z,100025.78
2022-08-22T01:56:40.003Z,100033.91
2022-08-22T01:59:14.938Z,100034.44
2022-08-22T02:02:01.077Z,100022.34
2022-08-22T02:04:39.488Z,100028.44
2022-08-22T02:07:19.392Z,100026.84
2022-08-22T02:10:19.270Z,100029.84
2022-08-22T02:13:23.137Z,100037.03
2022-08-22T02:16:03.603Z,100033.78
2022-08-22T02:18:46.296Z,100031.09
2022-08-22T02:21:37.349Z,100031.84
2022-08-22T02:24:19.187Z,100032.56
2022-08-22T02:27:10.829Z,100032.66
2022-08-22T02:30:09.879Z,100029.81
2022-08-22T02:32:43.574Z,100032.25
2022-08-22T02:35:12.682Z,100034.09
2022-08-22T02:37:55.202Z,100028.25
2022-08-22T02:40:37.711Z,100028.06
2022-08-22T02:43:24.058Z,100035.19
2022-08-22T02:45:59.532Z,100035.00
2022-08-22T02:48:39.015Z,100021.75
2022-08-22T02:51:24.296Z,100025.78
2022-08-22T02:54:28.368Z,100035.69
2022-08-22T02:57:14.226Z,100024.03
2022-08-22T03:00:31.447Z,100029.19
2022-08-22T03:02:59.242Z,100034.25
2022-08-22T03:05:41.865Z,100023.31
2022-08-22T03:08:17.092Z,100035.38
2022-08-22T03:10:50.486Z,100031.31
2022-08-22T03:13:25.856Z,100032.38
2022-08-22T03:16:00.490Z,100026.66
2022-08-22T03:18:54.627Z,100034.72
2022-08-22T03:21:52.163Z,100030.88
2022-08-22T03:24:37.406Z,100035.44
2022-08-22T03:27:49.463Z,100030.66
2022-08-22T03:30:21.595Z,100030.81
2022-08-22T03:32:59.461Z,100033.34
2022-08-22T03:35:42.154Z,100029.22
2022-08-22T03:38:26.933Z,100036.50
2022-08-22T03:41:15.223Z,100034.22
2022-08-22T03:44:13.244Z,100026.16
2022-08-22T03:46:55.789Z,100032.91
2022-08-22T03:49:59.382Z,100027.75
2022-08-22T03:53:01.253Z,100027.22
2022-08-22T03:55:56.704Z,100021.91
2022-08-22T03:58:56.446Z,100024.78
2022-08-22T04:01:44.627Z,100040.38
2022-08-22T04:04:10.988Z,100041.06
2022-08-22T04:06:56.556Z,100041.41
2022-08-22T04:09:44.049Z,100044.69
2022-08-22T04:12:41.299Z,100037.44
2022-08-22T04:15:29.767Z,100040.47
2022-08-22T04:18:40.594Z,100043.16
2022-08-22T04:21:33.108Z,100045.22
2022-08-22T04:24:21.104Z,100036.81
2022-08-22T04:26:59.793Z,100046.56
2022-08-22T04:29:45.183Z,100044.00
2022-08-22T04:32:15.054Z,100033.53
2022-08-22T04:34:48.639Z,100045.38
2022-08-22T04:37:22.942Z,100042.91
2022-08-22T04:40:07.371Z,100037.47
2022-08-22T04:42:49.847Z,100047.72
2022-08-22T04:45:37.571Z,100041.69
2022-08-22T04:48:22.613Z,100052.72
2022-08-22T04:51:03.202Z,100056.84
2022-08-22T04:54:05.555Z,100059.66
2022-08-22T04:56:54.741Z,100064.34
2022-08-22T04:59:24.103Z,100065.81
2022-08-22T05:01:55.103Z,100062.84
2022-08-22T05:04:29.146Z,100066.63
2022-08-22T05:07:05.898Z,100064.69
2022-08-22T05:09:35.807Z,100065.16
2022-08-22T05:12:09.098Z,100064.88
2022-08-22T05:14:41.115Z,100061.41
2022-08-22T05:17:10.657Z,100056.22
2022-08-22T05:19:40.592Z,100050.09
2022-08-22T05:22:18.703Z,100050.97
2022-08-22T05:24:49.661Z,100049.00
2022-08-22T05:27:22.035Z,100051.63
2022-08-22T05:29:53.705Z,100047.75
2022-08-22T05:32:29.122Z,100051.56
2022-08-22T05:35:02.048Z,100045.56
2022-08-22T05:37:40.431Z,100054.84
2022-08-22T05:40:10.715Z,100060.28
2022-08-22T05:42:37.556Z,100063.50
2022-08-22T05:45:11.575Z,100056.06
2022-08-22T05:47:42.907Z,100062.97
2022-08-22T05:50:20.212Z,100068.03
2022-08-22T05:53:08.787Z,100074.28
2022-08-22T05:55:41.599Z,100073.81
2022-08-22T05:58:27.010Z,100074.06
2022-08-22T06:01:25.378Z,100072.25
2022-08-22T06:04:06.912Z,100083.34
2022-08-22T06:06:50.873Z,100070.25
2022-08-22T06:09:35.425Z,100077.50
2022-08-22T06:12:18.237Z,100081.22
2022-08-22T06:14:54.804Z,100074.81
2022-08-22T06:17:34.864Z,100077.63
2022-08-22T06:20:05.679Z,100082.25
2022-08-22T06:22:41.709Z,100082.13
2022-08-22T06:25:30.325Z,100078.72
2022-08-22T06:28:01.558Z,100090.50
2022-08-22T06:30:28.880Z,100091.28
2022-08-22T06:33:01.313Z,100085.34
2022-08-22T06:35:57.426Z,100086.03
2022-08-22T06:38:32.325Z,100087.94
2022-08-22T06:41:02.952Z,100086.59
2022-08-22T06:43:38.480Z,100089.59
2022-08-22T06:46:07.294Z,100091.50
2022-08-22T06:48:36.138Z,100090.81
2022-08-22T06:51:07.013Z,100087.53
2022-08-22T06:53:42.365Z,100098.34
2022-08-22T06:56:21.591Z,100105.19
2022-08-22T06:58:52.165Z,100102.53
2022-08-22T07:01:24.424Z,100105.03
2022-08-22T07:03:54.266Z,100100.38
2022-08-22T07:06:41.188Z,100113.28
2022-08-22T07:09:18.524Z,100111.00
2022-08-22T07:11:45.460Z,100113.19
2022-08-22T07:14:16.066Z,100106.38
2022-08-22T07:16:56.661Z,100107.03
2022-08-22T07:19:33.110Z,100111.59
2022-08-22T07:22:10.414Z,100104.19
2022-08-22T07:24:39.700Z,100103.31
2022-08-22T07:27:15.930Z,100109.22
2022-08-22T07:29:48.112Z,100105.22
2022-08-22T07:32:44.574Z,100110.44
2022-08-22T07:35:15.930Z,100104.78
2022-08-22T07:37:45.073Z,100102.91
2022-08-22T07:40:31.900Z,100103.50
2022-08-22T07:43:35.779Z,100100.59
2022-08-22T07:46:20.878Z,100099.34
2022-08-22T07:49:08.001Z,100096.31
2022-08-22T07:51:49.587Z,100112.06
2022-08-22T07:54:43.850Z,100104.78
2022-08-22T07:57:24.855Z,100098.00
2022-08-22T07:59:54.232Z,100105.44
2022-08-22T08:02:22.008Z,100098.41
2022-08-22T08:04:51.431Z,100095.16
2022-08-22T08:07:22.370Z,100094.78
2022-08-22T08:10:14.273Z,100100.88
2022-08-22T08:12:56.128Z,100087.41
2022-08-22T08:15:30.357Z,100102.31
2022-08-22T08:18:02.857Z,100091.97
2022-08-22T08:20:30.337Z,100092.69
2022-08-22T08:22:58.467Z,100090.38
2022-08-22T08:25:31.738Z,100090.09
2022-08-22T08:28:18.261Z,100091.81
2022-08-22T08:30:56.429Z,100103.28
2022-08-22T08:33:28.082Z,100101.56
2022-08-22T08:36:05.690Z,100095.81
2022-08-22T08:38:51.219Z,100100.00
2022-08-22T08:41:44.244Z,100098.38
2022-08-22T08:44:52.686Z,100098.38
2022-08-22T08:47:27.822Z,100092.31
2022-08-22T08:50:15.434Z,100090.94
2022-08-22T08:53:31.392Z,100089.38
2022-08-22T08:56:06.491Z,100093.00
2022-08-22T08:58:47.768Z,100091.56
2022-08-22T09:01:38.056Z,100089.97
2022-08-22T09:04:29.940Z,100087.28
2022-08-22T09:07:02.535Z,100084.69
2022-08-22T09:10:08.373Z,100091.66
2022-08-22T09:13:00.322Z,100090.22
2022-08-22T09:16:05.230Z,100076.34
2022-08-22T09:18:58.991Z,100080.97
2022-08-22T09:21:33.611Z,100077.19
2022-08-22T09:24:12.899Z,100073.50
2022-08-22T09:27:08.680Z,100071.81
2022-08-22T09:29:54.941Z,100067.53
2022-08-22T09:32:52.409Z,100066.47
2022-08-22T09:35:39.987Z,100059.97
2022-08-22T09:38:25.745Z,100067.59
2022-08-22T09:40:57.906Z,100064.06
2022-08-22T09:43:44.724Z,100065.72
2022-08-22T09:46:54.106Z,100053.78
2022-08-22T09:49:34.771Z,100061.34
2022-08-22T09:52:32.044Z,100045.81
2022-08-22T09:55:11.731Z,100043.94
2022-08-22T09:57:52.771Z,100039.75
2022-08-22T10:00:22.705Z,100038.75
2022-08-22T10:03:11.216Z,100038.63
2022-08-22T10:05:48.257Z,100042.91
2022-08-22T10:08:39.143Z,100051.28
2022-08-22T10:11:08.409Z,100040.88
2022-08-22T10:13:40.433Z,100032.56
2022-08-22T10:16:20.385Z,100042.75
2022-08-22T10:19:10.849Z,100041.84
2022-08-22T10:22:10.450Z,100038.19
2022-08-22T10:24:51.275Z,100035.25
2022-08-22T10:27:28.965Z,100032.81
2022-08-22T10:30:25.571Z,100029.88
2022-08-22T10:33:09.467Z,100033.69
2022-08-22T10:35:50.935Z,100034.06
2022-08-22T10:38:25.033Z,100031.34
2022-08-22T10:41:09.314Z,100020.88
2022-08-22T10:43:56.568Z,100025.84
2022-08-22T10:46:51.172Z,100017.97
2022-08-22T10:49:51.150Z,100019.16
2022-08-22T10:52:48.115Z,100017.50
2022-08-22T10:55:25.530Z,100007.38
2022-08-22T10:58:10.935Z,100008.28
2022-08-22T11:00:46.101Z,100011.78
2022-08-22T11:03:27.506Z,99997.22
2022-08-22T11:06:27.934Z,99996.63
2022-08-22T11:09:31.172Z,100003.03
2022-08-22T11:12:19.721Z,99998.19
2022-08-22T11:14:46.044Z,99999.56
2022-08-22T11:17:54.419Z,99991.00
2022-08-22T11:20:58.337Z,99988.09
2022-08-22T11:23:42.511Z,99991.50
2022-08-22T11:26:33.788Z,100002.97
2022-08-22T11:29:13.966Z,99999.97
2022-08-22T11:32:00.429Z,99990.34
2022-08-22T11:34:34.189Z,99986.28
2022-08-22T11:37:43.383Z,99988.56
2022-08-22T11:40:26.914Z,99987.69
2022-08-22T11:43:07.297Z,99979.25
2022-08-22T11:45:51.840Z,99978.13
2022-08-22T11:48:26.626Z,99985.06
2022-08-22T11:51:16.582Z,99973.50
2022-08-22T11:54:07.488Z,99972.16
2022-08-22T11:56:48.957Z,99973.97
2022-08-22T11:59:32.547Z,99973.97
2022-08-22T12:02:08.830Z,99973.25
2022-08-22T12:04:42.577Z,99974.06
2022-08-22T12:07:28.767Z,99966.13
2022-08-22T12:09:59.498Z,99967.44
2022-08-22T12:12:44.174Z,99961.09
2022-08-22T12:15:21.343Z,99966.19
2022-08-22T12:18:19.926Z,99962.69
2022-08-22T12:21:18.746Z,99956.09
2022-08-22T12:24:11.186Z,99957.59
2022-08-22T12:26:56.647Z,99958.56
2022-08-22T12:29:48.455Z,99952.66
2022-08-22T12:32:34.122Z,99948.53
2022-08-22T12:35:30.099Z,99946.31
2022-08-22T12:38:28.692Z,99940.91
2022-08-22T12:41:28.391Z,99947.63
2022-08-22T12:44:28.533Z,99937.44
2022-08-22T12:47:13.231Z,99926.91
2022-08-22T12:50:17.547Z,99929.41
2022-08-22T12:53:00.593Z,99924.94
2022-08-22T12:55:40.825Z,99922.88
2022-08-22T12:58:33.900Z,99927.59
2022-08-22T13:01:06.266Z,99924.63
2022-08-22T13:03:43.980Z,99925.84
2022-08-22T13:06:35.197Z,99920.22
2022-08-22T13:09:18.526Z,99916.38
2022-08-22T13:11:48.284Z,99907.28
2022-08-22T13:14:25.631Z,99897.16
2022-08-22T13:16:58.882Z,99903.56
2022-08-22T13:19:44.297Z,99900.44
2022-08-22T13:22:17.747Z,99904.66
2022-08-22T13:24:56.655Z,99903.72
2022-08-22T13:27:51.207Z,99903.09
2022-08-22T13:30:26.607Z,99898.72
2022-08-22T13:33:03.295Z,99892.41
2022-08-22T13:35:41.450Z,99894.94
2022-08-22T13:38:17.670Z,99899.25
2022-08-22T13:40:54.047Z,99896.97
2022-08-22T13:43:30.050Z,99891.22
2022-08-22T13:46:06.619Z,99897.13
2022-08-22T13:48:50.569Z,99896.84
2022-08-22T13:51:24.753Z,99894.16
2022-08-22T13:54:20.702Z,99894.72
2022-08-22T13:57:08.766Z,99888.09
2022-08-22T13:59:52.544Z,99886.75
2022-08-22T14:02:34.098Z,99884.03
2022-08-22T14:05:06.795Z,99874.84
2022-08-22T14:07:38.703Z,99884.69
2022-08-22T14:10:14.817Z,99873.09
2022-08-22T14:12:53.353Z,99869.59
2022-08-22T14:15:25.894Z,99874.97
2022-08-22T14:18:09.034Z,99872.34
2022-08-22T14:20:39.561Z,99862.63
2022-08-22T14:23:16.275Z,99865.38
2022-08-22T14:25:43.637Z,99864.88
2022-08-22T14:28:22.224Z,99858.41
2022-08-22T14:31:03.581Z,99861.72
2022-08-22T14:33:46.792Z,99854.66
2022-08-22T14:36:28.811Z,99852.94
2022-08-22T14:39:06.982Z,99845.56
2022-08-22T14:41:52.621Z,99843.72
2022-08-22T14:44:32.370Z,99845.06
2022-08-22T14:47:04.274Z,99837.88
2022-08-22T14:49:49.227Z,99831.03
2022-08-22T14:52:40.573Z,99838.44
2022-08-22T14:55:26.353Z,99836.91
2022-08-22T14:58:03.394Z,99830.84
2022-08-22T15:00:33.224Z,99830.19
2022-08-22T15:03:22.338Z,99828.38
2022-08-22T15:06:14.564Z,99833.66
2022-08-22T15:08:46.262Z,99825.25
2022-08-22T15:11:22.149Z,99834.69
2022-08-22T15:13:55.282Z,99827.41
2022-08-22T15:16:29.279Z,99825.13
2022-08-22T15:18:55.835Z,99823.91
2022-08-22T15:21:26.056Z,99834.13
2022-08-22T15:23:56.146Z,99812.50
2022-08-22T15:26:26.830Z,99826.13
2022-08-22T15:29:08.807Z,99812.19
2022-08-22T15:31:39.755Z,99819.91
2022-08-22T15:34:21.486Z,99814.09
2022-08-22T15:37:08.310Z,99818.19
2022-08-22T15:39:59.964Z,99808.31
2022-08-22T15:42:57.083Z,99807.09
2022-08-22T15:45:37.660Z,99808.31
2022-08-22T15:48:09.840Z,99803.94
2022-08-22T15:50:55.884Z,99807.09
2022-08-22T15:53:29.301Z,99800.41
2022-08-22T15:56:25.934Z,99804.91
2022-08-22T15:59:18.196Z,99794.78
2022-08-22T16:01:52.334Z,99800.94
2022-08-22T16:04:34.166Z,99799.50
2022-08-22T16:07:02.783Z,99807.53
2022-08-22T16:09:46.254Z,99801.28
2022-08-22T16:12:31.661Z,99802.41
2022-08-22T16:15:00.423Z,99796.56
2022-08-22T16:17:29.608Z,99801.53
2022-08-22T16:20:22.021Z,99795.44
2022-08-22T16:23:08.907Z,99794.50
2022-08-22T16:25:44.400Z,99785.34
2022-08-22T16:28:56.239Z,99789.00
2022-08-22T16:31:41.466Z,99789.13
2022-08-22T16:34:16.804Z,99794.31
2022-08-22T16:36:49.360Z,99792.81
2022-08-22T16:39:21.900Z,99797.91
2022-08-22T16:42:14.408Z,99784.84
2022-08-22T16:44:40.745Z,99782.59
2022-08-22T16:47:15.764Z,99785.19
2022-08-22T16:49:51.372Z,99785.22
2022-08-22T16:52:20.944Z,99784.34
2022-08-22T16:54:49.673Z,99790.22
2022-08-22T16:57:22.257Z,99797.00
2022-08-22T17:00:12.189Z,99796.00
2022-08-22T17:03:05.954Z,99787.59
2022-08-22T17:05:53.558Z,99795.97
2022-08-22T17:08:35.322Z,99793.94
2022-08-22T17:11:14.081Z,99792.72
2022-08-22T17:14:02.342Z,99794.03
2022-08-22T17:16:53.876Z,99794.03
2022-08-22T17:19:24.552Z,99798.31
2022-08-22T17:21:56.216Z,99798.00
2022-08-22T17:24:33.984Z,99791.59
2022-08-22T17:27:06.848Z,99804.59
2022-08-22T17:30:13.493Z,99806.91
2022-08-22T17:33:01.061Z,99805.38
2022-08-22T17:35:33.637Z,99804.56
2022-08-22T17:38:00.194Z,99797.72
2022-08-22T17:40:56.301Z,99799.22
2022-08-22T17:43:26.972Z,99803.41
2022-08-22T17:46:07.155Z,99806.50
2022-08-22T17:48:53.537Z,99804.50
2022-08-22T17:51:41.362Z,99806.38
2022-08-22T17:54:13.568Z,99805.59
2022-08-22T17:57:05.262Z,99799.19
2022-08-22T17:59:38.671Z,99814.59
2022-08-22T18:02:39.344Z,99816.00
2022-08-22T18:05:19.181Z,99810.06
2022-08-22T18:08:02.263Z,99806.31
2022-08-22T18:10:50.122Z,99813.84
2022-08-22T18:13:32.021Z,99810.06
2022-08-22T18:16:03.813Z,99808.72
2022-08-22T18:18:49.527Z,99813.88
2022-08-22T18:21:22.474Z,99813.84
2022-08-22T18:23:55.748Z,99815.56
2022-08-22T18:26:34.847Z,99812.13
2022-08-22T18:29:17.668Z,99822.84
2022-08-22T18:32:11.159Z,99818.00
2022-08-22T18:34:56.504Z,99824.66
2022-08-22T18:37:44.957Z,99817.53
2022-08-22T18:40:23.252Z,99815.41
2022-08-22T18:43:15.099Z,99816.38
2022-08-22T18:45:47.540Z,99823.28
2022-08-22T18:49:05.338Z,99818.59
2022-08-22T18:51:38.371Z,99823.34
2022-08-22T18:54:04.999Z,99821.63
2022-08-22T18:56:31.326Z,99823.63
2022-08-22T18:59:09.658Z,99822.69
2022-08-22T19:01:44.611Z,99828.53
2022-08-22T19:04:26.167Z,99827.19
2022-08-22T19:07:23.271Z,99826.06
2022-08-22T19:10:20.572Z,99833.16
2022-08-22T19:13:01.986Z,99833.06
2022-08-22T19:15:53.019Z,99832.16
2022-08-22T19:18:36.214Z,99842.56
2022-08-22T19:21:33.235Z,99839.63
2022-08-22T19:24:00.321Z,99836.50
2022-08-22T19:26:36.259Z,99848.91
2022-08-22T19:29:25.593Z,99853.19
2022-08-22T19:31:54.564Z,99852.38
2022-08-22T19:34:32.009Z,99860.13
2022-08-22T19:37:32.300Z,99856.22
2022-08-22T19:40:07.814Z,99859.88
2022-08-22T19:42:38.058Z,99859.75
2022-08-22T19:45:20.199Z,99866.22
2022-08-22T19:47:56.829Z,99866.72
2022-08-22T19:50:23.478Z,99866.25
2022-08-22T19:53:24.325Z,99859.50
2022-08-22T19:56:15.378Z,99865.09
2022-08-22T19:59:06.700Z,99860.50
2022-08-22T20:01:58.129Z,99861.25
2022-08-22T20:04:48.729Z,99862.41
2022-08-22T20:07:45.518Z,99868.59
2022-08-22T20:10:42.420Z,99863.44
2022-08-22T20:13:24.475Z,99863.88
2022-08-22T20:16:19.711Z,99867.59
2022-08-22T20:19:05.503Z,99873.09
2022-08-22T20:21:50.977Z,99873.19
2022-08-22T20:24:42.570Z,99878.34
2022-08-22T20:27:22.903Z,99873.34
2022-08-22T20:29:55.349Z,99874.06
2022-08-22T20:32:24.378Z,99879.34
2022-08-22T20:34:55.236Z,99878.13
2022-08-22T20:37:40.181Z,99874.50
2022-08-22T20:40:54.868Z,99878.13
2022-08-22T20:43:31.653Z,99876.69
2022-08-22T20:46:18.897Z,99874.06
2022-08-22T20:48:47.673Z,99881.03
2022-08-22T20:51:17.721Z,99884.66
2022-08-22T20:53:55.720Z,99885.81
2022-08-22T20:56:52.791Z,99887.53
2022-08-22T20:59:37.324Z,99889.31
2022-08-22T21:02:10.440Z,99885.66
2022-08-22T21:05:02.683Z,99892.56
2022-08-22T21:07:51.382Z,99887.88
2022-08-22T21:10:46.587Z,99888.47
2022-08-22T21:13:47.004Z,99888.34
2022-08-22T21:16:20.469Z,99888.63
2022-08-22T21:18:53.070Z,99885.84
2022-08-22T21:21:25.608Z,99889.06
2022-08-22T21:24:01.482Z,99888.69
2022-08-22T21:26:36.432Z,99882.56
2022-08-22T21:29:05.681Z,99889.69
2022-08-22T21:32:04.696Z,99895.28
2022-08-22T21:34:36.496Z,99890.88
2022-08-22T21:37:12.414Z,99894.97
2022-08-22T21:39:45.812Z,99893.03
2022-08-22T21:42:37.120Z,99891.75
2022-08-22T21:45:07.679Z,99901.59
2022-08-22T21:47:37.360Z,99896.25
2022-08-22T21:50:12.809Z,99910.16
2022-08-22T21:52:59.707Z,99901.66
2022-08-22T21:55:34.575Z,99904.59
2022-08-22T21:58:04.658Z,99911.50
2022-08-22T22:00:54.694Z,99917.03
2022-08-22T22:03:29.611Z,99914.81
2022-08-22T22:06:01.460Z,99920.94
2022-08-22T22:08:29.945Z,99917.88
2022-08-22T22:11:01.122Z,99923.69
2022-08-22T22:13:31.404Z,99924.75
2022-08-22T22:15:58.067Z,99926.50
2022-08-22T22:18:27.136Z,99924.75
2022-08-22T22:20:54.722Z,99933.63
2022-08-22T22:23:22.409Z,99930.41
2022-08-22T22:25:49.629Z,99932.00
2022-08-22T22:28:21.614Z,99936.31
2022-08-22T22:30:51.346Z,99933.41
2022-08-22T22:33:23.438Z,99934.09
2022-08-22T22:35:52.130Z,99945.69
2022-08-22T22:38:23.764Z,99936.44
2022-08-22T22:40:50.898Z,99939.16
2022-08-22T22:43:17.327Z,99944.94
2022-08-22T22:45:43.845Z,99947.38
2022-08-22T22:48:10.303Z,99949.16
2022-08-22T22:50:40.613Z,99943.63
2022-08-22T22:53:08.032Z,99951.84
2022-08-22T22:55:36.973Z,99950.50
2022-08-22T22:58:08.139Z,99951.56
2022-08-22T23:00:36.987Z,99956.25
2022-08-22T23:03:05.867Z,99955.38
2022-08-22T23:05:33.107Z,99960.06
2022-08-22T23:08:00.735Z,99957.22
2022-08-22T23:10:28.704Z,99948.34
2022-08-22T23:12:55.323Z,99965.25
2022-08-22T23:15:21.790Z,99954.97
2022-08-22T23:17:48.482Z,99957.31
2022-08-22T23:20:14.950Z,99959.44
2022-08-22T23:22:42.875Z,99958.84
2022-08-22T23:25:09.480Z,99963.38
2022-08-22T23:27:36.564Z,99958.31
2022-08-22T23:30:04.972Z,99968.00
2022-08-22T23:32:31.419Z,99970.53
2022-08-22T23:34:58.058Z,99964.75
2022-08-22T23:37:24.595Z,99972.75
2022-08-22T23:39:51.090Z,99979.66
2022-08-22T23:42:18.143Z,99979.94
2022-08-22T23:44:45.783Z,99979.44
2022-08-22T23:47:13.621Z,99984.47
2022-08-22T23:49:41.483Z,99983.88
2022-08-22T23:52:09.681Z,99982.50
2022-08-22T23:54:36.387Z,99985.88
2022-08-22T23:57:11.798Z,99988.03
2022-08-22T23:59:46.375Z,99977.41
